^^
Saratoga-Weather Station Historical Data
Daily Summary for September 23, 2020 Units:  Metric    English   Both
Daily Weekly Monthly Yearly Custom
  High: Low: Average:
Temperature: 22.4 °C 16.9 °C 19.5 °C
Dew Point: 13.7 °C 9.8 °C 12 °C
Humidity: 79% 46% 63%
Wind Speed: 22.7km/h 0km/h 6.3km/h
Wind Gust: 33.8km/h - -
Wind- - West
Pressure: 1018.3 hPa 1015.6 hPa -
Precipitation: 0.0 mm    
Historical Graphs
 
 
Tabular Data for September 23, 2020
Time Temperature Dew Point Pressure Wind Wind Speed Wind Gust Humidity Rainfall Rate (Hourly) solar
00:04 19.8 °C 12.6 °C 1016.6 hPa WNW 3.2 km/h 4.8 km/h 63% 0.0 mm 0 W/m2
00:09 19.8 °C 12.6 °C 1016.6 hPa Calm   1.6 km/h 63% 0.0 mm 0 W/m2
00:15 19.8 °C 12.6 °C 1016.6 hPa Calm   4.8 km/h 63% 0.0 mm 0 W/m2
00:20 19.9 °C 12.6 °C 1016.6 hPa Calm   1.6 km/h 63% 0.0 mm 0 W/m2
00:25 19.9 °C 12.6 °C 1016.6 hPa SW 1.4 km/h 1.6 km/h 63% 0.0 mm 0 W/m2
00:30 19.9 °C 12.6 °C 1016.6 hPa West 3.2 km/h 4.8 km/h 63% 0.0 mm 0 W/m2
00:35 19.9 °C 12.6 °C 1016.6 hPa WNW 4.7 km/h 6.4 km/h 63% 0.0 mm 0 W/m2
00:40 19.8 °C 12.6 °C 1016.6 hPa WNW 3.2 km/h 4.8 km/h 63% 0.0 mm 0 W/m2
00:45 19.8 °C 12.6 °C 1016.6 hPa Calm   3.2 km/h 63% 0.0 mm 0 W/m2
00:50 19.7 °C 12.5 °C 1016.6 hPa WSW 1.4 km/h 6.4 km/h 63% 0.0 mm 0 W/m2
00:55 19.7 °C 12.7 °C 1016.6 hPa West 3.2 km/h 4.8 km/h 64% 0.0 mm 0 W/m2
01:00 19.7 °C 12.7 °C 1016.6 hPa WSW 3.2 km/h 4.8 km/h 64% 0.0 mm 0 W/m2
01:05 19.7 °C 12.7 °C 1016.6 hPa West 1.4 km/h 3.2 km/h 64% 0.0 mm 0 W/m2
01:10 19.7 °C 12.7 °C 1016.6 hPa WSW 1.4 km/h 4.8 km/h 64% 0.0 mm 0 W/m2
01:15 19.7 °C 12.5 °C 1016.6 hPa WSW 1.4 km/h 4.8 km/h 63% 0.0 mm 0 W/m2
01:20 19.8 °C 12.6 °C 1016.3 hPa SSW 3.2 km/h 4.8 km/h 63% 0.0 mm 0 W/m2
01:25 19.8 °C 12.8 °C 1016.3 hPa WNW 3.2 km/h 4.8 km/h 64% 0.0 mm 0 W/m2
01:30 19.7 °C 12.7 °C 1016.6 hPa West 4.7 km/h 4.8 km/h 64% 0.0 mm 0 W/m2
01:35 19.7 °C 12.7 °C 1016.6 hPa Calm   6.4 km/h 64% 0.0 mm 0 W/m2
01:40 19.7 °C 12.7 °C 1016.3 hPa West 6.4 km/h 6.4 km/h 64% 0.0 mm 0 W/m2
01:45 19.7 °C 12.7 °C 1016.6 hPa West 3.2 km/h 4.8 km/h 64% 0.0 mm 0 W/m2
01:50 19.7 °C 12.7 °C 1016.3 hPa West 1.4 km/h 3.2 km/h 64% 0.0 mm 0 W/m2
01:55 19.7 °C 12.7 °C 1016.3 hPa West 1.4 km/h 8 km/h 64% 0.0 mm 0 W/m2
02:00 19.7 °C 12.9 °C 1016.3 hPa West 1.4 km/h 3.2 km/h 65% 0.0 mm 0 W/m2
02:05 19.6 °C 12.8 °C 1016.3 hPa WSW 3.2 km/h 3.2 km/h 65% 0.0 mm 0 W/m2
02:10 19.4 °C 12.7 °C 1016.3 hPa Calm   4.8 km/h 65% 0.0 mm 0 W/m2
02:15 19.4 °C 12.7 °C 1016.3 hPa NW 3.2 km/h 6.4 km/h 65% 0.0 mm 0 W/m2
02:20 19.4 °C 12.7 °C 1016.3 hPa WNW 1.4 km/h 4.8 km/h 65% 0.0 mm 0 W/m2
02:25 19.4 °C 12.7 °C 1016.3 hPa WSW 1.4 km/h 6.4 km/h 65% 0.0 mm 0 W/m2
02:30 19.4 °C 12.7 °C 1016.3 hPa WSW 1.4 km/h 1.6 km/h 65% 0.0 mm 0 W/m2
02:35 19.4 °C 12.7 °C 1016.3 hPa Calm   1.6 km/h 65% 0.0 mm 0 W/m2
02:40 19.4 °C 12.7 °C 1016.3 hPa WNW 1.4 km/h 4.8 km/h 65% 0.0 mm 0 W/m2
02:45 19.4 °C 12.7 °C 1016.3 hPa West 1.4 km/h 3.2 km/h 65% 0.0 mm 0 W/m2
02:50 19.4 °C 12.7 °C 1016.3 hPa Calm   1.6 km/h 65% 0.0 mm 0 W/m2
02:55 19.4 °C 12.9 °C 1016.3 hPa Calm   3.2 km/h 66% 0.0 mm 0 W/m2
03:00 19.4 °C 12.9 °C 1016.3 hPa WNW 1.4 km/h 3.2 km/h 66% 0.0 mm 0 W/m2
03:05 19.3 °C 12.8 °C 1016.3 hPa Calm   1.6 km/h 66% 0.0 mm 0 W/m2
03:10 19.3 °C 12.8 °C 1016.3 hPa NW 3.2 km/h 4.8 km/h 66% 0.0 mm 0 W/m2
03:15 19.4 °C 12.9 °C 1016.3 hPa WNW 3.2 km/h 6.4 km/h 66% 0.0 mm 0 W/m2
03:20 19.4 °C 13.1 °C 1016.3 hPa West 3.2 km/h 4.8 km/h 67% 0.0 mm 0 W/m2
03:25 19.4 °C 13.1 °C 1016.3 hPa NNW 1.4 km/h 4.8 km/h 67% 0.0 mm 0 W/m2
03:30 19.4 °C 13.1 °C 1016.3 hPa WSW 1.4 km/h 3.2 km/h 67% 0.0 mm 0 W/m2
03:36 19.3 °C 13 °C 1015.9 hPa North 3.2 km/h 4.8 km/h 67% 0.0 mm 0 W/m2
03:41 19.3 °C 13 °C 1016.3 hPa NNW 4.7 km/h 4.8 km/h 67% 0.0 mm 0 W/m2
03:46 19.3 °C 13 °C 1016.3 hPa Calm   1.6 km/h 67% 0.0 mm 0 W/m2
03:51 19.3 °C 13 °C 1015.9 hPa WNW 1.4 km/h 9.7 km/h 67% 0.0 mm 0 W/m2
03:56 19.2 °C 12.9 °C 1015.9 hPa NNW 1.4 km/h 4.8 km/h 67% 0.0 mm 0 W/m2
04:01 19.2 °C 13.1 °C 1015.9 hPa WNW 7.9 km/h 8 km/h 68% 0.0 mm 0 W/m2
04:06 19.2 °C 13.1 °C 1015.9 hPa SW 3.2 km/h 11.3 km/h 68% 0.0 mm 0 W/m2
04:11 19.2 °C 13.1 °C 1015.9 hPa WSW 3.2 km/h 8 km/h 68% 0.0 mm 0 W/m2
04:16 19.1 °C 13.1 °C 1015.9 hPa WNW 3.2 km/h 4.8 km/h 68% 0.0 mm 0 W/m2
04:21 19.1 °C 13.3 °C 1015.9 hPa WNW 11.1 km/h 14.5 km/h 69% 0.0 mm 0 W/m2
04:26 19.1 °C 13.3 °C 1015.9 hPa West 4.7 km/h 6.4 km/h 69% 0.0 mm 0 W/m2
04:31 19.1 °C 13.3 °C 1015.9 hPa WNW 4.7 km/h 14.5 km/h 69% 0.0 mm 0 W/m2
04:36 19.1 °C 13.3 °C 1015.9 hPa NW 4.7 km/h 6.4 km/h 69% 0.0 mm 0 W/m2
04:41 19 °C 13.2 °C 1015.9 hPa West 3.2 km/h 8 km/h 69% 0.0 mm 0 W/m2
04:46 19 °C 13.2 °C 1015.9 hPa NW 7.9 km/h 8 km/h 69% 0.0 mm 0 W/m2
04:51 18.9 °C 13.1 °C 1015.9 hPa Calm   1.6 km/h 69% 0.0 mm 0 W/m2
04:56 18.9 °C 13.1 °C 1015.9 hPa WSW 6.4 km/h 9.7 km/h 69% 0.0 mm 0 W/m2
05:01 18.8 °C 13.2 °C 1015.9 hPa SE 1.4 km/h 6.4 km/h 70% 0.0 mm 0 W/m2
05:06 18.8 °C 13.2 °C 1015.9 hPa West 4.7 km/h 16.1 km/h 70% 0.0 mm 0 W/m2
05:12 18.8 °C 13.2 °C 1015.9 hPa Calm   3.2 km/h 70% 0.0 mm 0 W/m2
05:17 18.7 °C 13.1 °C 1015.9 hPa West 3.2 km/h 14.5 km/h 70% 0.0 mm 0 W/m2
05:22 18.7 °C 13.3 °C 1015.9 hPa WSW 4.7 km/h 6.4 km/h 71% 0.0 mm 0 W/m2
05:27 18.6 °C 13.2 °C 1015.9 hPa West 4.7 km/h 12.9 km/h 71% 0.0 mm 0 W/m2
05:32 18.6 °C 13.2 °C 1015.9 hPa NNW 4.7 km/h 6.4 km/h 71% 0.0 mm 0 W/m2
05:37 18.6 °C 13.2 °C 1015.9 hPa Calm   11.3 km/h 71% 0.0 mm 0 W/m2
05:42 18.6 °C 13.2 °C 1015.6 hPa Calm   6.4 km/h 71% 0.0 mm 0 W/m2
05:47 18.4 °C 13 °C 1015.9 hPa NW 1.4 km/h 11.3 km/h 71% 0.0 mm 0 W/m2
05:52 18.4 °C 13.3 °C 1015.6 hPa WNW 3.2 km/h 4.8 km/h 72% 0.0 mm 0 W/m2
05:57 18.3 °C 13.2 °C 1015.9 hPa West 3.2 km/h 14.5 km/h 72% 0.0 mm 0 W/m2
06:02 18.2 °C 13.1 °C 1015.9 hPa WNW 1.4 km/h 8 km/h 72% 0.0 mm 0 W/m2
06:07 18.2 °C 13.1 °C 1015.9 hPa NW 1.4 km/h 14.5 km/h 72% 0.0 mm 0 W/m2
06:12 18.1 °C 13 °C 1015.9 hPa NW 3.2 km/h 8 km/h 72% 0.0 mm 0 W/m2
06:17 18.1 °C 13 °C 1015.9 hPa West 6.4 km/h 14.5 km/h 72% 0.0 mm 0 W/m2
06:22 17.9 °C 13 °C 1015.9 hPa West 6.4 km/h 11.3 km/h 73% 0.0 mm 0 W/m2
06:27 17.8 °C 12.9 °C 1016.3 hPa West 4.7 km/h 14.5 km/h 73% 0.0 mm 0 W/m2
06:32 17.8 °C 12.9 °C 1015.9 hPa WNW 4.7 km/h 11.3 km/h 73% 0.0 mm 0 W/m2
06:37 17.7 °C 13 °C 1016.3 hPa West 6.4 km/h 12.9 km/h 74% 0.0 mm 0 W/m2
06:42 17.6 °C 12.9 °C 1016.3 hPa West 6.4 km/h 14.5 km/h 74% 0.0 mm 0 W/m2
06:47 17.4 °C 12.9 °C 1016.3 hPa WSW 13 km/h 14.5 km/h 75% 0.0 mm 7 W/m2
06:52 17.3 °C 12.8 °C 1016.3 hPa WNW 11.1 km/h 19.3 km/h 75% 0.0 mm 12 W/m2
06:57 17.2 °C 12.7 °C 1016.3 hPa WSW 13 km/h 14.5 km/h 75% 0.0 mm 16 W/m2
07:02 17.1 °C 12.8 °C 1016.3 hPa WNW 20.9 km/h 20.9 km/h 76% 0.0 mm 23 W/m2
07:07 17 °C 12.7 °C 1016.6 hPa West 9.7 km/h 16.1 km/h 76% 0.0 mm 26 W/m2
07:12 16.9 °C 12.8 °C 1016.3 hPa NW 3.2 km/h 20.9 km/h 77% 0.0 mm 28 W/m2
07:17 16.9 °C 12.8 °C 1016.6 hPa West 11.1 km/h 12.9 km/h 77% 0.0 mm 30 W/m2
07:22 16.9 °C 13 °C 1016.6 hPa SW 3.2 km/h 12.9 km/h 78% 0.0 mm 32 W/m2
07:27 16.9 °C 13 °C 1016.6 hPa West 6.4 km/h 11.3 km/h 78% 0.0 mm 37 W/m2
07:32 16.9 °C 13 °C 1016.6 hPa West 13 km/h 16.1 km/h 78% 0.0 mm 28 W/m2
07:37 16.9 °C 13 °C 1016.6 hPa WSW 7.9 km/h 11.3 km/h 78% 0.0 mm 28 W/m2
07:42 16.9 °C 13.2 °C 1016.6 hPa WNW 17.7 km/h 17.7 km/h 79% 0.0 mm 40 W/m2
07:47 17.1 °C 13.2 °C 1016.6 hPa NW 11.1 km/h 17.7 km/h 78% 0.0 mm 70 W/m2
07:52 17.2 °C 13.3 °C 1016.9 hPa West 14.3 km/h 14.5 km/h 78% 0.0 mm 81 W/m2
07:57 17.3 °C 13.4 °C 1016.6 hPa West 13 km/h 19.3 km/h 78% 0.0 mm 72 W/m2
08:02 17.3 °C 13.2 °C 1016.9 hPa WSW 4.7 km/h 12.9 km/h 77% 0.0 mm 32 W/m2
08:07 17.3 °C 13.4 °C 1016.9 hPa West 3.2 km/h 14.5 km/h 78% 0.0 mm 32 W/m2
08:12 17.2 °C 13.3 °C 1016.9 hPa West 6.4 km/h 14.5 km/h 78% 0.0 mm 72 W/m2
08:17 17.3 °C 13.4 °C 1016.9 hPa WSW 6.4 km/h 17.7 km/h 78% 0.0 mm 105 W/m2
08:22 17.5 °C 13.6 °C 1016.9 hPa WSW 22.7 km/h 33.8 km/h 78% 0.0 mm 67 W/m2
08:27 17.5 °C 13.4 °C 1016.9 hPa WSW 11.1 km/h 19.3 km/h 77% 0.0 mm 74 W/m2
08:32 17.6 °C 13.5 °C 1016.9 hPa NW 7.9 km/h 33.8 km/h 77% 0.0 mm 127 W/m2
08:37 17.8 °C 13.7 °C 1016.9 hPa WSW 7.9 km/h 20.9 km/h 77% 0.0 mm 155 W/m2
08:42 18 °C 13.7 °C 1016.9 hPa NW 6.4 km/h 22.5 km/h 76% 0.0 mm 171 W/m2
08:47 17.9 °C 13.4 °C 1017.3 hPa SW 7.9 km/h 16.1 km/h 75% 0.0 mm 125 W/m2
08:52 17.7 °C 13.2 °C 1017.3 hPa WSW 14.3 km/h 24.1 km/h 75% 0.0 mm 105 W/m2
08:57 17.5 °C 13.2 °C 1017.3 hPa West 6.4 km/h 11.3 km/h 76% 0.0 mm 118 W/m2
09:02 17.5 °C 13.4 °C 1017.3 hPa West 4.7 km/h 24.1 km/h 77% 0.0 mm 121 W/m2
09:07 17.5 °C 13.4 °C 1017.3 hPa NW 6.4 km/h 9.7 km/h 77% 0.0 mm 114 W/m2
09:12 17.4 °C 13.1 °C 1017.3 hPa WNW 11.1 km/h 16.1 km/h 76% 0.0 mm 91 W/m2
09:17 17.4 °C 13.1 °C 1017.3 hPa WNW 6.4 km/h 12.9 km/h 76% 0.0 mm 438 W/m2
09:22 17.8 °C 13.5 °C 1017.6 hPa WNW 13 km/h 14.5 km/h 76% 0.0 mm 292 W/m2
09:32 18.2 °C 13.3 °C 1017.6 hPa WNW 6.4 km/h 16.1 km/h 73% 0.0 mm 111 W/m2
09:37 18.3 °C 13 °C 1017.6 hPa West 9.7 km/h 17.7 km/h 71% 0.0 mm 338 W/m2
09:42 18.2 °C 12.6 °C 1017.6 hPa WNW 17.7 km/h 17.7 km/h 70% 0.0 mm 323 W/m2
09:47 18.3 °C 13 °C 1017.6 hPa WNW 4.7 km/h 12.9 km/h 71% 0.0 mm 561 W/m2
09:52 18.7 °C 13.3 °C 1017.6 hPa WSW 11.1 km/h 11.3 km/h 71% 0.0 mm 605 W/m2
09:57 18.8 °C 13.4 °C 1017.6 hPa West 9.7 km/h 14.5 km/h 71% 0.0 mm 169 W/m2
10:02 18.7 °C 12.7 °C 1017.6 hPa WNW 4.7 km/h 19.3 km/h 68% 0.0 mm 158 W/m2
10:07 18.5 °C 12.5 °C 1017.6 hPa West 11.1 km/h 16.1 km/h 68% 0.0 mm 517 W/m2
10:12 18.6 °C 12.8 °C 1017.6 hPa WNW 13 km/h 19.3 km/h 69% 0.0 mm 332 W/m2
10:17 18.6 °C 12.8 °C 1017.6 hPa WNW 4.7 km/h 19.3 km/h 69% 0.0 mm 181 W/m2
10:22 18.4 °C 12.6 °C 1017.6 hPa WSW 11.1 km/h 16.1 km/h 69% 0.0 mm 237 W/m2
10:27 18.3 °C 12.7 °C 1018.0 hPa West 6.4 km/h 19.3 km/h 70% 0.0 mm 155 W/m2
10:33 18.3 °C 13 °C 1018.0 hPa WNW 11.1 km/h 12.9 km/h 71% 0.0 mm 120 W/m2
10:38 18.1 °C 12.8 °C 1018.0 hPa NW 9.7 km/h 19.3 km/h 71% 0.0 mm 98 W/m2
10:43 17.9 °C 12.8 °C 1018.0 hPa WSW 6.4 km/h 16.1 km/h 72% 0.0 mm 234 W/m2
10:48 18.1 °C 13 °C 1018.0 hPa WNW 4.7 km/h 17.7 km/h 72% 0.0 mm 330 W/m2
10:53 18.3 °C 13 °C 1018.0 hPa NNW 13 km/h 22.5 km/h 71% 0.0 mm 338 W/m2
10:58 18.4 °C 13 °C 1018.0 hPa West 11.1 km/h 12.9 km/h 71% 0.0 mm 348 W/m2
11:03 18.4 °C 13 °C 1018.0 hPa WNW 7.9 km/h 22.5 km/h 71% 0.0 mm 227 W/m2
11:08 18.3 °C 13 °C 1018.0 hPa WSW 7.9 km/h 12.9 km/h 71% 0.0 mm 288 W/m2
11:13 18.3 °C 13 °C 1018.0 hPa WNW 7.9 km/h 16.1 km/h 71% 0.0 mm 272 W/m2
11:18 18.5 °C 12.9 °C 1018.3 hPa WSW 13 km/h 17.7 km/h 70% 0.0 mm 559 W/m2
11:23 18.5 °C 12.7 °C 1018.0 hPa West 13 km/h 20.9 km/h 69% 0.0 mm 325 W/m2
11:28 18.6 °C 12.6 °C 1018.0 hPa West 9.7 km/h 12.9 km/h 68% 0.0 mm 128 W/m2
11:33 18.9 °C 12.4 °C 1018.0 hPa WNW 6.4 km/h 12.9 km/h 66% 0.0 mm 703 W/m2
11:38 19.3 °C 12.6 °C 1018.0 hPa NNW 6.4 km/h 12.9 km/h 65% 0.0 mm 758 W/m2
11:43 19.8 °C 12.3 °C 1018.0 hPa West 13 km/h 24.1 km/h 62% 0.0 mm 916 W/m2
11:48 19.8 °C 12.3 °C 1018.0 hPa West 6.4 km/h 19.3 km/h 62% 0.0 mm 490 W/m2
11:53 19.9 °C 12.4 °C 1018.0 hPa WNW 6.4 km/h 12.9 km/h 62% 0.0 mm 304 W/m2
11:58 19.6 °C 12.4 °C 1018.3 hPa NW 7.9 km/h 16.1 km/h 63% 0.0 mm 271 W/m2
12:03 19.5 °C 12.3 °C 1018.3 hPa WSW 17.7 km/h 17.7 km/h 63% 0.0 mm 831 W/m2
12:08 19.6 °C 12.4 °C 1018.0 hPa WNW 7.9 km/h 14.5 km/h 63% 0.0 mm 789 W/m2
12:13 19.6 °C 12.1 °C 1018.0 hPa WNW 16.3 km/h 19.3 km/h 62% 0.0 mm 814 W/m2
12:18 19.7 °C 12.5 °C 1018.0 hPa WNW 4.7 km/h 14.5 km/h 63% 0.0 mm 904 W/m2
12:23 19.8 °C 11.8 °C 1018.0 hPa SW 6.4 km/h 17.7 km/h 60% 0.0 mm 854 W/m2
12:28 20.1 °C 12.3 °C 1018.0 hPa NNW 9.7 km/h 14.5 km/h 61% 0.0 mm 830 W/m2
12:33 20.3 °C 11.8 °C 1018.0 hPa WSW 7.9 km/h 27.4 km/h 58% 0.0 mm 793 W/m2
12:38 20.3 °C 11.5 °C 1018.0 hPa NW 19.5 km/h 20.9 km/h 57% 0.0 mm 870 W/m2
12:43 20.4 °C 11.9 °C 1018.0 hPa ENE 4.7 km/h 25.7 km/h 58% 0.0 mm 338 W/m2
12:48 20.4 °C 11.9 °C 1018.0 hPa WNW 4.7 km/h 12.9 km/h 58% 0.0 mm 345 W/m2
12:53 20.3 °C 11.5 °C 1018.0 hPa WNW 22.7 km/h 25.7 km/h 57% 0.0 mm 355 W/m2
12:58 20.1 °C 11.3 °C 1018.0 hPa WNW 14.3 km/h 19.3 km/h 57% 0.0 mm 974 W/m2
13:03 20.1 °C 10.8 °C 1018.0 hPa WNW 7.9 km/h 16.1 km/h 55% 0.0 mm 179 W/m2
13:08 19.9 °C 10.3 °C 1018.0 hPa WNW 4.7 km/h 11.3 km/h 54% 0.0 mm 142 W/m2
13:13 20.2 °C 10.6 °C 1018.0 hPa West 17.7 km/h 20.9 km/h 54% 0.0 mm 863 W/m2
13:18 20.6 °C 10.7 °C 1018.0 hPa NW 13 km/h 12.9 km/h 53% 0.0 mm 930 W/m2
13:23 20.9 °C 10.7 °C 1018.0 hPa West 6.4 km/h 12.9 km/h 52% 0.0 mm 367 W/m2
13:28 20.9 °C 10.7 °C 1018.0 hPa West 9.7 km/h 12.9 km/h 52% 0.0 mm 241 W/m2
13:33 20.8 °C 10 °C 1018.0 hPa NW 13 km/h 16.1 km/h 50% 0.0 mm 267 W/m2
13:38 21.1 °C 10.9 °C 1018.0 hPa NNW 9.7 km/h 11.3 km/h 52% 0.0 mm 923 W/m2
13:43 21.5 °C 10.6 °C 1018.0 hPa NNW 4.7 km/h 12.9 km/h 50% 0.0 mm 1014 W/m2
13:48 21.3 °C 10.2 °C 1018.0 hPa West 17.7 km/h 19.3 km/h 49% 0.0 mm 265 W/m2
13:53 21.1 °C 10.3 °C 1018.0 hPa West 6.4 km/h 16.1 km/h 50% 0.0 mm 352 W/m2
13:58 21.4 °C 10.5 °C 1018.0 hPa WNW 7.9 km/h 12.9 km/h 50% 0.0 mm 1051 W/m2
14:03 21.7 °C 10.5 °C 1018.0 hPa NW 14.3 km/h 14.5 km/h 49% 0.0 mm 1072 W/m2
14:08 21.6 °C 10.4 °C 1018.0 hPa NW 11.1 km/h 16.1 km/h 49% 0.0 mm 295 W/m2
14:13 21.4 °C 10.8 °C 1018.0 hPa NNW 14.3 km/h 16.1 km/h 51% 0.0 mm 383 W/m2
14:18 21.2 °C 11 °C 1018.0 hPa West 6.4 km/h 14.5 km/h 52% 0.0 mm 338 W/m2
14:23 21.2 °C 11 °C 1018.3 hPa NW 9.7 km/h 16.1 km/h 52% 0.0 mm 415 W/m2
14:29 20.9 °C 10.4 °C 1018.3 hPa WNW 11.1 km/h 16.1 km/h 51% 0.0 mm 403 W/m2
14:34 20.9 °C 10.4 °C 1018.3 hPa WNW 11.1 km/h 19.3 km/h 51% 0.0 mm 441 W/m2
14:39 20.9 °C 10.1 °C 1018.3 hPa West 4.7 km/h 12.9 km/h 50% 0.0 mm 476 W/m2
14:44 21.2 °C 10.1 °C 1018.0 hPa WSW 13 km/h 25.7 km/h 49% 0.0 mm 1063 W/m2
14:49 21.4 °C 10.5 °C 1018.3 hPa WNW 4.7 km/h 14.5 km/h 50% 0.0 mm 589 W/m2
14:54 21.7 °C 10.8 °C 1018.0 hPa NW 4.7 km/h 25.7 km/h 50% 0.0 mm 954 W/m2
14:59 21.9 °C 10.7 °C 1018.0 hPa West 11.1 km/h 16.1 km/h 49% 0.0 mm 954 W/m2
15:04 21.8 °C 10.6 °C 1018.0 hPa WSW 6.4 km/h 20.9 km/h 49% 0.0 mm 381 W/m2
15:09 21.7 °C 10.8 °C 1018.0 hPa West 6.4 km/h 14.5 km/h 50% 0.0 mm 587 W/m2
15:14 21.6 °C 10.7 °C 1018.0 hPa West 9.7 km/h 19.3 km/h 50% 0.0 mm 478 W/m2
15:19 21.4 °C 10.8 °C 1018.0 hPa West 11.1 km/h 14.5 km/h 51% 0.0 mm 200 W/m2
15:24 21.2 °C 10.7 °C 1018.0 hPa West 4.7 km/h 16.1 km/h 51% 0.0 mm 232 W/m2
15:29 21.2 °C 10.7 °C 1018.0 hPa SW 9.7 km/h 12.9 km/h 51% 0.0 mm 234 W/m2
15:34 21.2 °C 11 °C 1018.0 hPa NW 4.7 km/h 8 km/h 52% 0.0 mm 279 W/m2
15:39 21.2 °C 10.7 °C 1018.0 hPa NW 3.2 km/h 11.3 km/h 51% 0.0 mm 302 W/m2
15:44 21.2 °C 10.4 °C 1018.0 hPa NW 13 km/h 17.7 km/h 50% 0.0 mm 320 W/m2
15:49 21.2 °C 10.7 °C 1018.0 hPa West 13 km/h 17.7 km/h 51% 0.0 mm 279 W/m2
15:54 21.1 °C 10.6 °C 1018.0 hPa West 11.1 km/h 11.3 km/h 51% 0.0 mm 227 W/m2
15:59 21.1 °C 10.6 °C 1018.0 hPa WNW 4.7 km/h 11.3 km/h 51% 0.0 mm 325 W/m2
16:04 21.1 °C 10.6 °C 1018.0 hPa West 1.4 km/h 11.3 km/h 51% 0.0 mm 315 W/m2
16:09 21.3 °C 11 °C 1018.0 hPa WNW 4.7 km/h 6.4 km/h 52% 0.0 mm 316 W/m2
16:14 21.8 °C 10.9 °C 1018.0 hPa NNW 3.2 km/h 12.9 km/h 50% 0.0 mm 786 W/m2
16:19 21.9 °C 10.4 °C 1018.0 hPa WNW 7.9 km/h 19.3 km/h 48% 0.0 mm 357 W/m2
16:24 21.7 °C 10.2 °C 1018.0 hPa NNW 6.4 km/h 11.3 km/h 48% 0.0 mm 366 W/m2
16:29 21.7 °C 10.2 °C 1018.0 hPa West 9.7 km/h 19.3 km/h 48% 0.0 mm 401 W/m2
16:35 21.6 °C 10.4 °C 1018.0 hPa West 6.4 km/h 6.4 km/h 49% 0.0 mm 178 W/m2
16:40 21.4 °C 10.2 °C 1018.0 hPa NNW 14.3 km/h 19.3 km/h 49% 0.0 mm 594 W/m2
16:45 21.4 °C 10.2 °C 1017.6 hPa WNW 6.4 km/h 6.4 km/h 49% 0.0 mm 274 W/m2
16:50 21.5 °C 10 °C 1017.6 hPa North 4.7 km/h 8 km/h 48% 0.0 mm 320 W/m2
16:55 21.6 °C 10.4 °C 1017.6 hPa West 4.7 km/h 12.9 km/h 49% 0.0 mm 253 W/m2
17:00 21.7 °C 10.2 °C 1017.6 hPa WSW 7.9 km/h 12.9 km/h 48% 0.0 mm 355 W/m2
17:05 21.7 °C 9.9 °C 1017.6 hPa West 4.7 km/h 8 km/h 47% 0.0 mm 185 W/m2
17:10 21.9 °C 10.4 °C 1017.6 hPa WNW 4.7 km/h 9.7 km/h 48% 0.0 mm 598 W/m2
17:15 22.2 °C 10 °C 1017.6 hPa West 9.7 km/h 14.5 km/h 46% 0.0 mm 250 W/m2
17:20 22.4 °C 10.2 °C 1017.6 hPa West 13 km/h 20.9 km/h 46% 0.0 mm 515 W/m2
17:25 22.2 °C 10.4 °C 1017.6 hPa WNW 11.1 km/h 11.3 km/h 47% 0.0 mm 207 W/m2
17:30 21.9 °C 9.8 °C 1017.6 hPa West 1.4 km/h 19.3 km/h 46% 0.0 mm 213 W/m2
17:35 21.8 °C 10 °C 1017.6 hPa NW 3.2 km/h 12.9 km/h 47% 0.0 mm 246 W/m2
17:40 21.8 °C 10.3 °C 1017.6 hPa WNW 3.2 km/h 11.3 km/h 48% 0.0 mm 227 W/m2
17:45 21.9 °C 10.4 °C 1017.6 hPa NW 9.7 km/h 11.3 km/h 48% 0.0 mm 211 W/m2
17:50 21.8 °C 10.3 °C 1017.3 hPa West 1.4 km/h 8 km/h 48% 0.0 mm 197 W/m2
17:55 21.8 °C 10 °C 1017.3 hPa SSW 6.4 km/h 11.3 km/h 47% 0.0 mm 174 W/m2
18:00 21.8 °C 10.3 °C 1017.3 hPa WNW 7.9 km/h 11.3 km/h 48% 0.0 mm 141 W/m2
18:05 21.7 °C 10.2 °C 1017.3 hPa WNW 6.4 km/h 12.9 km/h 48% 0.0 mm 114 W/m2
18:10 21.6 °C 10.1 °C 1017.3 hPa West 4.7 km/h 14.5 km/h 48% 0.0 mm 97 W/m2
18:15 21.5 °C 10 °C 1017.3 hPa WNW 4.7 km/h 9.7 km/h 48% 0.0 mm 95 W/m2
18:20 21.4 °C 10.2 °C 1017.3 hPa West 13 km/h 12.9 km/h 49% 0.0 mm 109 W/m2
18:25 21.4 °C 10.2 °C 1017.3 hPa West 9.7 km/h 12.9 km/h 49% 0.0 mm 116 W/m2
18:30 21.4 °C 10.2 °C 1017.3 hPa WNW 7.9 km/h 14.5 km/h 49% 0.0 mm 125 W/m2
18:35 21.4 °C 10.2 °C 1017.3 hPa WNW 3.2 km/h 11.3 km/h 49% 0.0 mm 144 W/m2
18:40 21.7 °C 10.5 °C 1017.3 hPa West 3.2 km/h 6.4 km/h 49% 0.0 mm 403 W/m2
18:45 22.2 °C 10.7 °C 1016.9 hPa NW 3.2 km/h 11.3 km/h 48% 0.0 mm 323 W/m2
18:50 22.2 °C 10.4 °C 1017.3 hPa West 9.7 km/h 14.5 km/h 47% 0.0 mm 292 W/m2
18:55 21.9 °C 10.4 °C 1017.3 hPa WSW 13 km/h 17.7 km/h 48% 0.0 mm 151 W/m2
19:00 21.8 °C 10.3 °C 1017.3 hPa West 6.4 km/h 14.5 km/h 48% 0.0 mm 114 W/m2
19:05 21.7 °C 10.5 °C 1017.3 hPa West 9.7 km/h 20.9 km/h 49% 0.0 mm 65 W/m2
19:10 21.5 °C 10.3 °C 1017.3 hPa West 4.7 km/h 16.1 km/h 49% 0.0 mm 195 W/m2
19:15 21.4 °C 10.2 °C 1017.3 hPa NW 6.4 km/h 11.3 km/h 49% 0.0 mm 169 W/m2
19:20 21.3 °C 10.5 °C 1017.3 hPa West 17.7 km/h 22.5 km/h 50% 0.0 mm 149 W/m2
19:25 21.2 °C 10.4 °C 1017.3 hPa West 4.7 km/h 11.3 km/h 50% 0.0 mm 134 W/m2
19:30 21.1 °C 10.6 °C 1017.3 hPa SW 6.4 km/h 6.4 km/h 51% 0.0 mm 116 W/m2
19:35 21.1 °C 10.6 °C 1017.3 hPa NNW 4.7 km/h 11.3 km/h 51% 0.0 mm 90 W/m2
19:40 20.9 °C 10.7 °C 1017.3 hPa WNW 6.4 km/h 8 km/h 52% 0.0 mm 25 W/m2
19:45 20.8 °C 10.6 °C 1017.3 hPa WNW 14.3 km/h 14.5 km/h 52% 0.0 mm 21 W/m2
19:50 20.6 °C 10.7 °C 1017.3 hPa WNW 4.7 km/h 8 km/h 53% 0.0 mm 19 W/m2
19:55 20.4 °C 10.5 °C 1017.3 hPa NNW 7.9 km/h 11.3 km/h 53% 0.0 mm 18 W/m2
20:00 20.3 °C 10.4 °C 1017.3 hPa SW 1.4 km/h 4.8 km/h 53% 0.0 mm 14 W/m2
20:05 20.2 °C 10.6 °C 1017.3 hPa WNW 3.2 km/h 3.2 km/h 54% 0.0 mm 12 W/m2
20:10 20.1 °C 10.8 °C 1017.3 hPa West 4.7 km/h 14.5 km/h 55% 0.0 mm 12 W/m2
20:15 19.9 °C 10.6 °C 1017.3 hPa WNW 1.4 km/h 3.2 km/h 55% 0.0 mm 11 W/m2
20:20 19.8 °C 10.8 °C 1017.3 hPa SSW 6.4 km/h 11.3 km/h 56% 0.0 mm 9 W/m2
20:25 19.7 °C 10.7 °C 1017.3 hPa WNW 4.7 km/h   56% 0.0 mm 9 W/m2
20:30 19.6 °C 10.8 °C 1017.6 hPa WSW 1.4 km/h 3.2 km/h 57% 0.0 mm 5 W/m2
20:35 19.4 °C 10.7 °C 1017.6 hPa WSW 4.7 km/h 4.8 km/h 57% 0.0 mm 0 W/m2
20:40 19.4 °C 10.7 °C 1017.6 hPa West 3.2 km/h 4.8 km/h 57% 0.0 mm 0 W/m2
20:45 19.3 °C 10.8 °C 1017.6 hPa West 3.2 km/h 3.2 km/h 58% 0.0 mm 0 W/m2
20:50 19.3 °C 10.8 °C 1017.6 hPa West 1.4 km/h 6.4 km/h 58% 0.0 mm 0 W/m2
20:55 19.2 °C 10.7 °C 1017.6 hPa WSW 4.7 km/h 8 km/h 58% 0.0 mm 0 W/m2
21:00 19.2 °C 10.7 °C 1017.6 hPa Calm   4.8 km/h 58% 0.0 mm 0 W/m2
21:05 19.1 °C 10.6 °C 1017.6 hPa West 3.2 km/h 3.2 km/h 58% 0.0 mm 0 W/m2
21:10 19.1 °C 10.9 °C 1017.6 hPa West 3.2 km/h 4.8 km/h 59% 0.0 mm 0 W/m2
21:15 18.9 °C 10.7 °C 1017.6 hPa WNW 6.4 km/h 11.3 km/h 59% 0.0 mm 0 W/m2
21:20 18.9 °C 10.7 °C 1018.0 hPa West 3.2 km/h 9.7 km/h 59% 0.0 mm 0 W/m2
21:25 18.9 °C 11 °C 1018.0 hPa WNW 1.4 km/h 11.3 km/h 60% 0.0 mm 0 W/m2
21:30 18.9 °C 11.2 °C 1018.0 hPa West 3.2 km/h 4.8 km/h 61% 0.0 mm 0 W/m2
21:35 18.9 °C 11.2 °C 1018.0 hPa West 3.2 km/h 4.8 km/h 61% 0.0 mm 0 W/m2
21:40 18.8 °C 11.4 °C 1018.0 hPa WSW 3.2 km/h 6.4 km/h 62% 0.0 mm 0 W/m2
21:45 18.8 °C 11.6 °C 1018.0 hPa West 6.4 km/h 6.4 km/h 63% 0.0 mm 0 W/m2
21:50 18.8 °C 11.8 °C 1018.0 hPa WSW 4.7 km/h 6.4 km/h 64% 0.0 mm 0 W/m2
21:55 18.8 °C 11.8 °C 1018.0 hPa West 4.7 km/h 12.9 km/h 64% 0.0 mm 0 W/m2
22:00 18.9 °C 11.9 °C 1018.0 hPa NW 4.7 km/h 6.4 km/h 64% 0.0 mm 0 W/m2
22:05 18.9 °C 12.2 °C 1018.0 hPa NW 9.7 km/h 9.7 km/h 65% 0.0 mm 0 W/m2
22:10 18.8 °C 12.1 °C 1018.0 hPa WSW 11.1 km/h 11.3 km/h 65% 0.0 mm 0 W/m2
22:15 18.8 °C 12.3 °C 1018.0 hPa WNW 4.7 km/h 14.5 km/h 66% 0.0 mm 0 W/m2
22:20 18.8 °C 12.3 °C 1018.0 hPa West 6.4 km/h 8 km/h 66% 0.0 mm 0 W/m2
22:25 18.7 °C 12.2 °C 1018.0 hPa West 4.7 km/h 14.5 km/h 66% 0.0 mm 0 W/m2
22:30 18.6 °C 12.4 °C 1018.0 hPa West 4.7 km/h 9.7 km/h 67% 0.0 mm 0 W/m2
22:36 18.6 °C 12.4 °C 1018.0 hPa WNW 4.7 km/h 11.3 km/h 67% 0.0 mm 0 W/m2
22:41 18.4 °C 12.4 °C 1018.0 hPa WNW 4.7 km/h 9.7 km/h 68% 0.0 mm 0 W/m2
22:46 18.4 °C 12.4 °C 1018.0 hPa NW 4.7 km/h 11.3 km/h 68% 0.0 mm 0 W/m2
22:51 18.3 °C 12.3 °C 1018.0 hPa West 3.2 km/h 4.8 km/h 68% 0.0 mm 0 W/m2
22:56 18.2 °C 12.4 °C 1018.0 hPa NW 6.4 km/h 12.9 km/h 69% 0.0 mm 0 W/m2
23:01 18.2 °C 12.4 °C 1018.0 hPa West 4.7 km/h 9.7 km/h 69% 0.0 mm 0 W/m2
23:06 18.1 °C 12.5 °C 1018.0 hPa West 4.7 km/h 9.7 km/h 70% 0.0 mm 0 W/m2
23:11 18.1 °C 12.5 °C 1018.0 hPa WSW 4.7 km/h 11.3 km/h 70% 0.0 mm 0 W/m2
23:16 18 °C 12.4 °C 1018.0 hPa NW 6.4 km/h 11.3 km/h 70% 0.0 mm 0 W/m2
23:21 17.9 °C 12.6 °C 1018.0 hPa West 6.4 km/h 9.7 km/h 71% 0.0 mm 0 W/m2
23:26 17.8 °C 12.5 °C 1018.0 hPa West 4.7 km/h 6.4 km/h 71% 0.0 mm 0 W/m2
23:31 17.8 °C 12.7 °C 1018.0 hPa West 3.2 km/h 4.8 km/h 72% 0.0 mm 0 W/m2
23:36 17.7 °C 12.6 °C 1018.0 hPa West 3.2 km/h 3.2 km/h 72% 0.0 mm 0 W/m2
23:41 17.7 °C 12.8 °C 1018.0 hPa WNW 3.2 km/h 3.2 km/h 73% 0.0 mm 0 W/m2
23:46 17.6 °C 12.7 °C 1018.0 hPa WNW 1.4 km/h 3.2 km/h 73% 0.0 mm 0 W/m2
23:51 17.6 °C 12.9 °C 1018.0 hPa Calm   1.6 km/h 74% 0.0 mm 0 W/m2
23:57 17.5 °C 12.8 °C 1018.0 hPa Calm   1.6 km/h 74% 0.0 mm 0 W/m2
Juneau County Weather
Compliments of Weather Underground - 4 mb